createdAt,value
2023-01-13T00:01:33.145Z,78.97
2023-01-13T00:04:02.226Z,78.98
2023-01-13T00:06:30.683Z,78.73
2023-01-13T00:08:59.304Z,78.69
2023-01-13T00:11:27.786Z,79.04
2023-01-13T00:13:56.369Z,79.10
2023-01-13T00:16:24.536Z,79.43
2023-01-13T00:18:53.529Z,79.11
2023-01-13T00:21:25.130Z,79.22
2023-01-13T00:23:55.550Z,79.42
2023-01-13T00:26:30.666Z,79.70
2023-01-13T00:29:00.246Z,79.22
2023-01-13T00:31:30.380Z,79.41
2023-01-13T00:34:02.969Z,79.46
2023-01-13T00:36:31.626Z,78.87
2023-01-13T00:39:00.441Z,79.55
2023-01-13T00:41:29.253Z,79.17
2023-01-13T00:43:56.362Z,78.92
2023-01-13T00:46:24.822Z,78.89
2023-01-13T00:48:54.787Z,78.94
2023-01-13T00:51:23.390Z,79.68
2023-01-13T00:53:53.190Z,79.37
2023-01-13T00:56:39.206Z,80.00
2023-01-13T01:02:08.852Z,79.83
2023-01-13T01:04:37.639Z,79.33
2023-01-13T01:07:06.246Z,79.50
2023-01-13T01:09:34.850Z,79.50
2023-01-13T01:12:03.507Z,78.98
2023-01-13T01:14:32.020Z,79.40
2023-01-13T01:17:00.540Z,79.38
2023-01-13T01:19:28.668Z,78.84
2023-01-13T01:21:56.826Z,78.98
2023-01-13T01:24:25.354Z,79.05
2023-01-13T01:26:54.077Z,79.04
2023-01-13T01:29:22.597Z,79.14
2023-01-13T01:31:51.263Z,78.60
2023-01-13T01:34:19.457Z,78.63
2023-01-13T01:36:47.659Z,78.96
2023-01-13T01:39:15.953Z,79.21
2023-01-13T01:42:04.685Z,78.88
2023-01-13T01:44:43.923Z,78.43
2023-01-13T01:47:16.319Z,78.31
2023-01-13T01:49:46.013Z,78.79
2023-01-13T01:52:33.420Z,78.78
2023-01-13T01:55:20.505Z,78.81
2023-01-13T01:57:55.245Z,78.85
2023-01-13T02:00:24.109Z,78.38
2023-01-13T02:02:53.647Z,78.07
2023-01-13T02:05:23.496Z,78.31
2023-01-13T02:07:54.775Z,78.59
2023-01-13T02:10:27.706Z,78.71
2023-01-13T02:13:01.063Z,79.15
2023-01-13T02:15:52.834Z,78.93
2023-01-13T02:18:35.736Z,78.42
2023-01-13T02:21:31.380Z,78.46
2023-01-13T02:24:49.840Z,78.17
2023-01-13T02:27:54.269Z,78.56
2023-01-13T02:31:25.146Z,78.71
2023-01-13T02:34:11.718Z,78.23
2023-01-13T02:36:57.126Z,78.71
2023-01-13T02:39:58.276Z,78.32
2023-01-13T02:42:52.816Z,78.18
2023-01-13T02:45:39.722Z,78.13
2023-01-13T02:48:10.320Z,78.72
2023-01-13T02:51:21.021Z,78.52
2023-01-13T02:54:00.921Z,78.35
2023-01-13T02:56:31.365Z,78.45
2023-01-13T02:59:01.144Z,78.64
2023-01-13T03:01:29.998Z,78.60
2023-01-13T03:03:58.144Z,78.37
2023-01-13T03:06:55.091Z,79.13
2023-01-13T03:09:34.487Z,78.42
2023-01-13T03:12:22.972Z,78.36
2023-01-13T03:15:37.165Z,78.64
2023-01-13T03:18:25.851Z,78.67
2023-01-13T03:21:11.085Z,77.72
2023-01-13T03:23:52.503Z,78.05
2023-01-13T03:27:15.765Z,78.99
2023-01-13T03:29:58.606Z,78.57
2023-01-13T03:32:38.180Z,79.05
2023-01-13T03:35:28.296Z,79.61
2023-01-13T03:38:16.362Z,78.96
2023-01-13T03:40:55.190Z,79.40
2023-01-13T03:43:49.016Z,79.62
2023-01-13T03:46:47.236Z,79.74
2023-01-13T03:49:21.853Z,79.13
2023-01-13T03:51:58.532Z,79.44
2023-01-13T03:54:32.258Z,79.47
2023-01-13T03:57:11.560Z,79.90
2023-01-13T03:59:44.542Z,80.09
2023-01-13T04:02:49.427Z,80.46
2023-01-13T04:05:19.268Z,80.68
2023-01-13T04:08:07.974Z,80.32
2023-01-13T04:10:54.838Z,80.43
2023-01-13T04:13:27.647Z,80.00
2023-01-13T04:15:56.293Z,79.80
2023-01-13T04:18:30.432Z,79.68
2023-01-13T04:21:01.584Z,79.98
2023-01-13T04:23:30.476Z,79.85
2023-01-13T04:26:00.419Z,79.46
2023-01-13T04:28:29.007Z,79.75
2023-01-13T04:30:57.863Z,79.92
2023-01-13T04:33:26.046Z,79.84
2023-01-13T04:35:55.233Z,79.96
2023-01-13T04:38:23.883Z,80.16
2023-01-13T04:40:52.146Z,80.16
2023-01-13T04:43:20.237Z,80.32
2023-01-13T04:45:48.307Z,80.80
2023-01-13T04:48:16.425Z,80.85
2023-01-13T04:50:44.518Z,81.04
2023-01-13T04:53:12.643Z,81.35
2023-01-13T04:55:44.459Z,81.10
2023-01-13T04:58:13.317Z,81.25
2023-01-13T05:00:41.879Z,81.21
2023-01-13T05:03:10.366Z,81.21
2023-01-13T05:05:39.126Z,80.61
2023-01-13T05:08:09.002Z,80.57
2023-01-13T05:10:37.229Z,81.13
2023-01-13T05:13:22.910Z,81.00
2023-01-13T05:16:11.263Z,81.04
2023-01-13T05:18:39.568Z,81.13
2023-01-13T05:21:27.817Z,80.86
2023-01-13T05:24:17.231Z,81.05
2023-01-13T05:26:45.838Z,81.21
2023-01-13T05:29:14.042Z,80.83
2023-01-13T05:31:42.539Z,81.27
2023-01-13T05:34:11.058Z,81.27
2023-01-13T05:36:39.588Z,80.73
2023-01-13T05:39:08.837Z,81.07
2023-01-13T05:41:54.384Z,80.37
2023-01-13T05:44:22.506Z,80.82
2023-01-13T05:46:51.162Z,81.11
2023-01-13T05:49:19.675Z,80.72
2023-01-13T05:51:49.776Z,81.08
2023-01-13T05:54:17.874Z,80.47
2023-01-13T05:56:46.336Z,81.10
2023-01-13T05:59:14.480Z,81.28
2023-01-13T06:01:42.769Z,80.77
2023-01-13T06:04:10.924Z,81.21
2023-01-13T06:06:39.409Z,81.28
2023-01-13T06:09:07.850Z,81.47
2023-01-13T06:11:36.290Z,81.48
2023-01-13T06:14:04.521Z,81.37
2023-01-13T06:16:32.700Z,81.01
2023-01-13T06:19:00.783Z,80.81
2023-01-13T06:21:28.797Z,81.06
2023-01-13T06:23:57.265Z,81.13
2023-01-13T06:26:29.289Z,81.88
2023-01-13T06:28:57.822Z,82.67
2023-01-13T06:31:28.737Z,83.12
2023-01-13T06:34:04.022Z,83.70
2023-01-13T06:36:40.639Z,83.50
2023-01-13T06:39:10.849Z,83.57
2023-01-13T06:41:56.364Z,84.27
2023-01-13T06:44:25.586Z,83.15
2023-01-13T06:46:54.186Z,83.15
2023-01-13T06:49:22.361Z,84.00
2023-01-13T06:51:50.853Z,85.69
2023-01-13T06:54:18.978Z,89.23
2023-01-13T06:56:47.111Z,92.89
2023-01-13T06:59:15.224Z,93.78
2023-01-13T07:01:43.577Z,95.29
2023-01-13T07:04:12.300Z,97.03
2023-01-13T07:06:40.353Z,99.33
2023-01-13T07:09:08.481Z,99.87
2023-01-13T07:11:36.555Z,100.00
2023-01-13T07:14:24.240Z,100.00
2023-01-13T07:16:54.196Z,100.00
2023-01-13T07:19:24.263Z,100.00
2023-01-13T07:21:53.423Z,100.00
2023-01-13T07:24:22.487Z,100.00
2023-01-13T07:26:52.477Z,100.00
2023-01-13T07:29:21.021Z,100.00
2023-01-13T07:31:50.492Z,100.00
2023-01-13T07:34:19.067Z,100.00
2023-01-13T07:36:47.591Z,100.00
2023-01-13T07:39:15.792Z,100.00
2023-01-13T07:42:01.833Z,100.00
2023-01-13T07:44:30.017Z,100.00
2023-01-13T07:46:58.536Z,100.00
2023-01-13T07:49:27.005Z,100.00
2023-01-13T07:51:55.484Z,100.00
2023-01-13T07:54:35.080Z,100.00
2023-01-13T07:57:08.139Z,100.00
2023-01-13T07:59:36.895Z,100.00
2023-01-13T08:02:05.228Z,100.00
2023-01-13T08:04:33.533Z,100.00
2023-01-13T08:07:02.191Z,100.00
2023-01-13T08:09:30.284Z,100.00
2023-01-13T08:12:12.723Z,100.00
2023-01-13T08:14:40.910Z,100.00
2023-01-13T08:17:10.706Z,100.00
2023-01-13T08:19:38.848Z,100.00
2023-01-13T08:22:07.322Z,100.00
2023-01-13T08:24:35.466Z,100.00
2023-01-13T08:27:03.971Z,100.00
2023-01-13T08:29:32.128Z,100.00
2023-01-13T08:32:00.280Z,100.00
2023-01-13T08:34:28.722Z,100.00
2023-01-13T08:36:57.159Z,100.00
2023-01-13T08:39:25.908Z,100.00
2023-01-13T08:41:56.775Z,100.00
2023-01-13T08:44:30.678Z,100.00
2023-01-13T08:46:59.732Z,100.00
2023-01-13T08:49:28.185Z,100.00
2023-01-13T08:51:56.361Z,100.00
2023-01-13T08:54:24.483Z,100.00
2023-01-13T08:56:53.194Z,100.00
2023-01-13T08:59:21.817Z,99.85
2023-01-13T09:01:50.389Z,100.00
2023-01-13T09:04:22.952Z,100.00
2023-01-13T09:06:51.917Z,100.00
2023-01-13T09:09:20.848Z,99.93
2023-01-13T09:12:09.334Z,100.00
2023-01-13T09:14:39.485Z,100.00
2023-01-13T09:17:08.600Z,98.91
2023-01-13T09:19:37.209Z,99.51
2023-01-13T09:22:05.776Z,99.54
2023-01-13T09:24:34.014Z,99.26
2023-01-13T09:27:02.464Z,99.30
2023-01-13T09:29:30.842Z,99.43
2023-01-13T09:31:59.480Z,99.35
2023-01-13T09:34:45.430Z,97.71
2023-01-13T09:37:14.011Z,98.08
2023-01-13T09:39:42.082Z,98.42
2023-01-13T09:43:03.880Z,98.77
2023-01-13T09:45:43.604Z,98.32
2023-01-13T09:48:28.190Z,98.35
2023-01-13T09:51:16.846Z,98.41
2023-01-13T09:54:03.308Z,98.44
2023-01-13T09:56:31.712Z,98.43
2023-01-13T09:59:00.244Z,98.70
2023-01-13T10:01:54.792Z,98.38
2023-01-13T10:04:23.081Z,98.77
2023-01-13T10:06:57.395Z,98.57
2023-01-13T10:09:52.835Z,98.20
2023-01-13T10:12:43.728Z,98.08
2023-01-13T10:15:23.108Z,97.97
2023-01-13T10:18:20.823Z,96.78
2023-01-13T10:21:27.091Z,96.25
2023-01-13T10:24:08.679Z,95.63
2023-01-13T10:27:05.075Z,96.24
2023-01-13T10:29:34.683Z,95.97
2023-01-13T10:32:02.822Z,95.80
2023-01-13T10:34:31.471Z,95.64
2023-01-13T10:37:06.380Z,95.14
2023-01-13T10:39:48.217Z,95.44
2023-01-13T10:42:22.980Z,94.69
2023-01-13T10:45:01.026Z,94.06
2023-01-13T10:47:37.019Z,91.98
2023-01-13T10:50:13.985Z,91.34
2023-01-13T10:53:16.558Z,91.57
2023-01-13T10:56:00.116Z,89.88
2023-01-13T10:58:28.632Z,88.44
2023-01-13T11:01:07.205Z,86.31
2023-01-13T11:03:41.763Z,88.58
2023-01-13T11:06:21.387Z,88.10
2023-01-13T11:08:52.483Z,87.86
2023-01-13T11:11:44.900Z,87.24
2023-01-13T11:14:41.718Z,87.11
2023-01-13T11:17:29.574Z,86.45
2023-01-13T11:20:13.007Z,86.27
2023-01-13T11:22:55.704Z,86.19
2023-01-13T11:25:43.052Z,85.75
2023-01-13T11:28:32.922Z,83.85
2023-01-13T11:31:07.128Z,83.94
2023-01-13T11:34:03.489Z,83.57
2023-01-13T11:36:47.726Z,82.88
2023-01-13T11:39:57.888Z,82.97
2023-01-13T11:43:11.738Z,82.29
2023-01-13T11:45:49.032Z,83.32
2023-01-13T11:48:22.349Z,81.40
2023-01-13T11:51:02.234Z,80.88
2023-01-13T11:54:29.407Z,80.29
2023-01-13T11:57:19.410Z,79.99
2023-01-13T12:00:05.683Z,78.13
2023-01-13T12:02:45.716Z,77.76
2023-01-13T12:05:31.426Z,76.80
2023-01-13T12:08:27.354Z,76.46
2023-01-13T12:11:19.023Z,73.24
2023-01-13T12:13:47.020Z,72.75
2023-01-13T12:16:32.552Z,74.64
2023-01-13T12:19:21.801Z,72.23
2023-01-13T12:22:13.985Z,74.30
2023-01-13T12:24:56.723Z,74.15
2023-01-13T12:27:47.148Z,72.34
2023-01-13T12:30:29.823Z,72.42
2023-01-13T12:33:18.650Z,72.80
2023-01-13T12:36:00.738Z,72.72
2023-01-13T12:38:38.932Z,72.29
2023-01-13T12:42:00.384Z,73.37
2023-01-13T12:44:27.492Z,73.29
2023-01-13T12:46:58.840Z,74.13
2023-01-13T12:49:36.560Z,73.83
2023-01-13T12:52:12.689Z,72.95
2023-01-13T12:54:43.955Z,72.57
2023-01-13T12:57:28.524Z,77.18
2023-01-13T13:00:10.130Z,81.71
2023-01-13T13:02:42.150Z,82.76
2023-01-13T13:05:16.451Z,84.63
2023-01-13T13:07:52.612Z,84.24
2023-01-13T13:10:31.881Z,81.35
2023-01-13T13:13:20.369Z,80.36
2023-01-13T13:15:51.598Z,76.37
2023-01-13T13:18:20.466Z,72.99
2023-01-13T13:20:56.165Z,72.43
2023-01-13T13:24:03.090Z,72.65
2023-01-13T13:26:42.425Z,71.29
2023-01-13T13:30:02.117Z,71.20
2023-01-13T13:32:47.667Z,72.08
2023-01-13T13:35:51.858Z,73.67
2023-01-13T13:38:45.968Z,73.45
2023-01-13T13:41:42.684Z,74.31
2023-01-13T13:44:37.924Z,74.98
2023-01-13T13:47:07.455Z,73.88
2023-01-13T13:49:37.986Z,72.68
2023-01-13T13:52:12.871Z,73.00
2023-01-13T13:54:47.637Z,73.59
2023-01-13T13:57:20.681Z,72.80
2023-01-13T13:59:56.149Z,71.95
2023-01-13T14:02:38.279Z,71.12
2023-01-13T14:05:34.532Z,72.79
2023-01-13T14:08:18.982Z,69.61
2023-01-13T14:10:48.369Z,70.15
2023-01-13T14:13:31.756Z,68.91
2023-01-13T14:16:11.110Z,69.73
2023-01-13T14:18:47.738Z,68.23
2023-01-13T14:21:29.214Z,71.20
2023-01-13T14:24:10.598Z,70.54
2023-01-13T14:26:39.411Z,67.14
2023-01-13T14:29:10.240Z,71.02
2023-01-13T14:31:40.817Z,70.91
2023-01-13T14:34:31.207Z,68.07
2023-01-13T14:36:59.920Z,68.04
2023-01-13T14:39:38.888Z,69.29
2023-01-13T14:42:14.436Z,69.56
2023-01-13T14:44:50.559Z,71.11
2023-01-13T14:47:22.955Z,69.58
2023-01-13T14:50:12.997Z,69.62
2023-01-13T14:52:54.651Z,70.25
2023-01-13T14:55:38.532Z,71.13
2023-01-13T14:58:29.519Z,71.48
2023-01-13T15:01:36.456Z,71.48
2023-01-13T15:04:38.211Z,70.59
2023-01-13T15:07:08.184Z,70.71
2023-01-13T15:09:45.771Z,70.86
2023-01-13T15:12:44.293Z,70.66
2023-01-13T15:15:36.881Z,70.77
2023-01-13T15:18:17.024Z,70.96
2023-01-13T15:20:45.742Z,71.60
2023-01-13T15:23:14.161Z,70.96
2023-01-13T15:25:49.828Z,70.68
2023-01-13T15:28:26.032Z,70.01
2023-01-13T15:31:00.526Z,70.60
2023-01-13T15:33:29.137Z,70.47
2023-01-13T15:35:57.801Z,69.00
2023-01-13T15:41:38.988Z,68.89
2023-01-13T15:44:24.801Z,68.40
2023-01-13T15:46:53.491Z,69.32
2023-01-13T15:49:44.173Z,69.54
2023-01-13T15:52:26.489Z,70.37
2023-01-13T15:54:55.730Z,68.01
2023-01-13T15:57:33.215Z,68.97
2023-01-13T16:00:13.433Z,68.21
2023-01-13T16:02:41.964Z,67.80
2023-01-13T16:05:10.504Z,68.18
2023-01-13T16:07:39.109Z,68.93
2023-01-13T16:10:17.178Z,69.09
2023-01-13T16:12:45.699Z,68.84
2023-01-13T16:15:22.236Z,68.28
2023-01-13T16:17:57.615Z,69.67
2023-01-13T16:20:26.399Z,68.60
2023-01-13T16:22:54.770Z,68.67
2023-01-13T16:25:26.899Z,68.84
2023-01-13T16:27:55.349Z,69.46
2023-01-13T16:30:37.864Z,68.74
2023-01-13T16:33:05.934Z,68.63
2023-01-13T16:35:35.327Z,69.00
2023-01-13T16:38:03.839Z,69.17
2023-01-13T16:40:37.215Z,68.90
2023-01-13T16:43:06.868Z,68.71
2023-01-13T16:45:35.395Z,70.29
2023-01-13T16:48:04.445Z,69.25
2023-01-13T16:50:41.642Z,69.11
2023-01-13T16:53:11.049Z,69.21
2023-01-13T16:55:41.203Z,68.56
2023-01-13T16:58:19.279Z,69.24
2023-01-13T17:00:48.741Z,69.22
2023-01-13T17:03:17.520Z,68.25
2023-01-13T17:05:47.999Z,68.80
2023-01-13T17:08:19.201Z,67.88
2023-01-13T17:10:48.194Z,68.53
2023-01-13T17:13:17.987Z,68.37
2023-01-13T17:15:47.128Z,68.92
2023-01-13T17:18:15.608Z,67.51
2023-01-13T17:20:43.761Z,67.26
2023-01-13T17:23:12.229Z,68.20
2023-01-13T17:25:40.690Z,68.48
2023-01-13T17:28:08.819Z,67.57
2023-01-13T17:30:37.376Z,67.69
2023-01-13T17:33:06.089Z,67.60
2023-01-13T17:35:34.080Z,68.26
2023-01-13T17:38:03.080Z,68.20
2023-01-13T17:40:31.553Z,68.70
2023-01-13T17:43:00.049Z,68.79
2023-01-13T17:45:28.176Z,68.79
2023-01-13T17:47:59.654Z,68.89
2023-01-13T17:50:28.224Z,68.94
2023-01-13T17:52:56.746Z,68.26
2023-01-13T17:55:25.341Z,68.86
2023-01-13T17:57:53.938Z,69.10
2023-01-13T18:00:22.651Z,69.09
2023-01-13T18:02:51.097Z,69.44
2023-01-13T18:05:19.513Z,68.26
2023-01-13T18:07:47.930Z,70.56
2023-01-13T18:10:16.099Z,69.49
2023-01-13T18:12:44.175Z,70.00
2023-01-13T18:15:12.646Z,69.80
2023-01-13T18:17:41.081Z,70.38
2023-01-13T18:20:28.460Z,70.32
2023-01-13T18:23:14.085Z,70.43
2023-01-13T18:25:59.350Z,71.12
2023-01-13T18:28:27.762Z,71.17
2023-01-13T18:30:56.277Z,70.85
2023-01-13T18:33:25.016Z,70.90
2023-01-13T18:35:53.542Z,71.23
2023-01-13T18:38:22.080Z,70.81
2023-01-13T18:40:50.546Z,71.45
2023-01-13T18:43:17.987Z,71.23
2023-01-13T18:45:52.119Z,72.11
2023-01-13T18:48:20.669Z,72.03
2023-01-13T18:50:49.080Z,72.29
2023-01-13T18:53:17.628Z,72.58
2023-01-13T18:55:45.832Z,72.58
2023-01-13T18:58:14.398Z,73.09
2023-01-13T19:00:42.784Z,72.99
2023-01-13T19:03:12.797Z,73.26
2023-01-13T19:05:41.077Z,73.80
2023-01-13T19:08:09.957Z,74.54
2023-01-13T19:10:39.941Z,74.01
2023-01-13T19:13:08.432Z,75.33
2023-01-13T19:15:38.422Z,75.57
2023-01-13T19:18:06.704Z,75.31
2023-01-13T19:20:35.084Z,74.61
2023-01-13T19:23:03.515Z,74.55
2023-01-13T19:25:32.070Z,74.88
2023-01-13T19:28:00.261Z,74.69
2023-01-13T19:30:28.792Z,75.10
2023-01-13T19:32:57.444Z,74.96
2023-01-13T19:35:25.913Z,75.10
2023-01-13T19:37:54.463Z,75.69
2023-01-13T19:40:22.902Z,75.53
2023-01-13T19:43:07.898Z,75.31
2023-01-13T19:45:36.537Z,74.96
2023-01-13T19:48:05.882Z,75.20
2023-01-13T19:50:38.733Z,75.22
2023-01-13T19:53:08.415Z,75.37
2023-01-13T19:55:37.066Z,74.68
2023-01-13T19:58:05.970Z,75.68
2023-01-13T20:00:34.973Z,75.48
2023-01-13T20:03:08.107Z,75.83
2023-01-13T20:05:36.866Z,75.75
2023-01-13T20:08:05.696Z,74.92
2023-01-13T20:10:33.982Z,75.06
2023-01-13T20:13:02.312Z,75.35
2023-01-13T20:15:31.172Z,75.00
2023-01-13T20:18:00.587Z,75.33
2023-01-13T20:20:28.807Z,75.53
2023-01-13T20:22:58.140Z,74.95
2023-01-13T20:25:28.825Z,75.18
2023-01-13T20:27:58.627Z,76.07
2023-01-13T20:30:26.917Z,75.67
2023-01-13T20:32:55.679Z,75.53
2023-01-13T20:35:29.668Z,75.88
2023-01-13T20:37:58.364Z,75.54
2023-01-13T20:40:26.908Z,75.59
2023-01-13T20:42:54.718Z,75.26
2023-01-13T20:45:23.496Z,75.58
2023-01-13T20:47:52.084Z,75.80
2023-01-13T20:50:20.688Z,76.23
2023-01-13T20:52:49.390Z,76.39
2023-01-13T20:55:17.519Z,75.85
2023-01-13T20:57:48.676Z,75.77
2023-01-13T21:00:17.587Z,75.64
2023-01-13T21:02:46.430Z,75.33
2023-01-13T21:05:15.004Z,74.91
2023-01-13T21:07:43.523Z,75.38
2023-01-13T21:10:12.549Z,75.66
2023-01-13T21:12:58.274Z,76.21
2023-01-13T21:15:27.530Z,75.79
2023-01-13T21:18:13.318Z,76.68
2023-01-13T21:20:41.797Z,77.61
2023-01-13T21:23:11.344Z,76.20
2023-01-13T21:25:40.279Z,76.84
2023-01-13T21:28:11.625Z,77.29
2023-01-13T21:30:40.832Z,77.41
2023-01-13T21:33:09.276Z,77.71
2023-01-13T21:35:40.231Z,78.57
2023-01-13T21:38:08.738Z,77.82
2023-01-13T21:40:37.449Z,77.54
2023-01-13T21:43:23.200Z,78.18
2023-01-13T21:46:09.098Z,78.13
2023-01-13T21:48:37.776Z,78.74
2023-01-13T21:51:06.351Z,78.64
2023-01-13T21:53:34.828Z,78.57
2023-01-13T21:56:03.345Z,78.74
2023-01-13T21:58:31.912Z,79.22
2023-01-13T22:01:04.137Z,79.22
2023-01-13T22:03:54.778Z,79.96
2023-01-13T22:06:24.027Z,78.96
2023-01-13T22:08:53.985Z,78.06
2023-01-13T22:11:22.501Z,78.62
2023-01-13T22:14:10.220Z,79.52
2023-01-13T22:16:49.424Z,79.25
2023-01-13T22:19:18.335Z,79.51
2023-01-13T22:21:46.912Z,80.22
2023-01-13T22:24:15.326Z,80.38
2023-01-13T22:26:43.735Z,80.48
2023-01-13T22:29:12.157Z,79.61
2023-01-13T22:31:40.846Z,78.89
2023-01-13T22:34:11.451Z,79.52
2023-01-13T22:36:39.673Z,79.45
2023-01-13T22:39:08.259Z,78.49
2023-01-13T22:41:36.782Z,79.18
2023-01-13T22:44:05.220Z,80.78
2023-01-13T22:46:33.342Z,79.94
2023-01-13T22:49:01.435Z,79.49
2023-01-13T22:51:30.546Z,80.19
2023-01-13T22:53:59.110Z,79.70
2023-01-13T22:56:28.433Z,79.27
2023-01-13T22:58:59.773Z,80.36
2023-01-13T23:01:32.018Z,79.95
2023-01-13T23:04:00.621Z,80.16
2023-01-13T23:06:31.787Z,81.08
2023-01-13T23:09:01.400Z,80.51
2023-01-13T23:11:31.432Z,79.98
2023-01-13T23:14:06.584Z,78.51
2023-01-13T23:16:39.148Z,80.44
2023-01-13T23:19:09.216Z,79.33
2023-01-13T23:21:39.444Z,78.98
2023-01-13T23:24:08.992Z,80.41
2023-01-13T23:26:38.066Z,80.42
2023-01-13T23:29:12.148Z,79.44
2023-01-13T23:31:40.985Z,79.70
2023-01-13T23:34:09.228Z,79.92
2023-01-13T23:36:41.078Z,79.80
2023-01-13T23:39:09.557Z,79.71
2023-01-13T23:41:38.118Z,79.88
2023-01-13T23:44:06.984Z,80.76
2023-01-13T23:46:35.953Z,79.35
2023-01-13T23:49:05.004Z,79.52
2023-01-13T23:51:33.498Z,79.58
2023-01-13T23:54:02.263Z,79.28
2023-01-13T23:56:33.030Z,80.62
2023-01-13T23:59:02.183Z,79.51
